Time;durP1;ratioP1;P1;durP2;ratioP2;P2;SDS_P1;SDS_P2;PMS_P1;PMS_P2;Temp;Humidity;BMP_temperature;BMP_pressure;BME280_temperature;BME280_humidity;BME280_pressure;Samples;Min_cycle;Max_cycle;Signal;HPM_P1;HPM_P2
2021/03/04 00:00:44;;;;;;;25.33;12.10;;;;;;;2.30;80.16;98033.97;5103723;28;20039;-69
2021/03/04 00:03:09;;;;;;;32.95;14.57;;;;;;;2.29;80.93;98098.75;5104159;28;20043;-69
2021/03/04 00:05:35;;;;;;;99.15;36.97;;;;;;;2.73;80.79;98069.22;5085477;28;20428;-68
2021/03/04 00:08:04;;;;;;;47.05;20.42;;;;;;;2.37;80.71;98009.84;5085768;28;20035;-68
2021/03/04 00:10:32;;;;;;;24.00;13.15;;;;;;;2.59;80.71;98046.41;5102345;28;20039;-68
2021/03/04 00:12:59;;;;;;;27.05;13.73;;;;;;;2.68;79.54;98052.06;5085249;28;20067;-68
2021/03/04 00:15:28;;;;;;;36.20;15.98;;;;;;;2.64;80.45;98048.31;5103582;28;20505;-68
2021/03/04 00:17:54;;;;;;;42.97;18.73;;;;;;;1.42;80.09;97851.53;5082020;28;20044;-68
2021/03/04 00:20:26;;;;;;;33.60;14.90;;;;;;;2.41;80.97;98010.88;5083418;28;20540;-68
2021/03/04 00:22:52;;;;;;;27.48;12.50;;;;;;;2.17;80.97;97971.84;5063735;28;20040;-68
2021/03/04 00:25:20;;;;;;;29.48;12.45;;;;;;;2.26;81.20;97997.41;5065283;28;20031;-68
2021/03/04 00:27:46;;;;;;;28.33;12.73;;;;;;;2.52;81.33;98028.75;5065470;28;20032;-67
2021/03/04 00:30:16;;;;;;;23.90;11.68;;;;;;;2.46;81.25;98027.22;5082863;28;20039;-68
2021/03/04 00:32:41;;;;;;;27.38;12.10;;;;;;;2.31;81.76;98024.69;5064964;28;20418;-67
2021/03/04 00:35:09;;;;;;;21.25;10.95;;;;;;;2.29;82.11;98013.22;5083302;28;20490;-67
2021/03/04 00:37:35;;;;;;;22.02;11.07;;;;;;;2.08;82.31;98011.84;5083655;28;20028;-67
2021/03/04 00:40:05;;;;;;;24.15;10.98;;;;;;;2.03;83.23;98006.44;5065382;28;20057;-67
2021/03/04 00:42:30;;;;;;;25.13;10.52;;;;;;;1.95;83.84;98016.09;5065081;28;20040;-67
2021/03/04 00:44:56;;;;;;;23.55;11.63;;;;;;;2.16;82.60;98000.28;5064899;28;20032;-67
2021/03/04 00:47:21;;;;;;;32.47;12.30;;;;;;;1.81;81.60;97929.69;5064626;28;20040;-67
2021/03/04 00:49:47;;;;;;;32.47;13.40;;;;;;;1.73;81.08;97933.06;5082936;28;20531;-67
2021/03/04 00:52:13;;;;;;;31.42;12.43;;;;;;;1.87;81.29;97944.91;5083154;28;20039;-67
2021/03/04 00:54:38;;;;;;;28.33;13.40;;;;;;;2.11;81.71;98000.34;5064898;28;20542;-67
2021/03/04 00:57:04;;;;;;;28.33;13.25;;;;;;;1.28;81.94;97913.38;5064851;28;20039;-67
2021/03/04 00:59:30;;;;;;;31.13;13.00;;;;;;;1.45;83.10;97886.44;5083364;28;20403;-68
2021/03/04 01:01:56;;;;;;;32.10;13.65;;;;;;;1.69;83.12;97926.56;5082923;28;20035;-67
2021/03/04 01:04:24;;;;;;;26.77;13.55;;;;;;;2.11;82.96;97973.00;5082989;28;20028;-67
2021/03/04 01:06:49;;;;;;;37.00;15.75;;;;;;;1.22;81.45;97813.59;5084568;28;20400;-66
2021/03/04 01:09:15;;;;;;;55.83;22.10;;;;;;;1.74;81.76;97907.41;5068362;28;20028;-66
2021/03/04 01:11:41;;;;;;;45.20;19.15;;;;;;;2.21;81.84;97967.41;5068276;28;20344;-66
2021/03/04 01:14:07;;;;;;;36.05;17.05;;;;;;;2.22;80.60;97974.50;5068307;28;20116;-66
2021/03/04 01:16:32;;;;;;;26.85;14.10;;;;;;;2.19;81.33;97969.63;5090460;28;20530;-67
2021/03/04 01:18:58;;;;;;;30.20;15.05;;;;;;;2.16;82.05;97956.56;5088712;28;20599;-66
2021/03/04 01:21:24;;;;;;;32.15;14.55;;;;;;;0.52;82.33;97817.09;5106730;28;20112;-65
2021/03/04 01:23:49;;;;;;;29.20;14.35;;;;;;;2.11;82.69;97962.91;5106723;28;20402;-66
2021/03/04 01:26:15;;;;;;;27.75;14.00;;;;;;;2.11;82.55;97957.44;5088260;28;20063;-65
2021/03/04 01:28:41;;;;;;;27.00;12.63;;;;;;;1.61;82.88;97916.28;5106410;28;20032;-66
2021/03/04 01:31:07;;;;;;;31.77;13.23;;;;;;;1.98;82.87;97946.41;5088333;28;20028;-65
2021/03/04 01:33:32;;;;;;;29.55;12.30;;;;;;;2.01;82.95;97957.56;5106638;28;20118;-65
2021/03/04 01:35:58;;;;;;;24.48;12.95;;;;;;;2.08;82.09;97943.53;5088171;28;20023;-65
2021/03/04 01:38:24;;;;;;;25.90;12.60;;;;;;;1.97;82.44;97951.06;5088563;28;20081;-66
2021/03/04 01:40:50;;;;;;;28.58;12.43;;;;;;;1.82;82.53;97901.28;5106443;28;20084;-67
2021/03/04 01:43:16;;;;;;;27.02;12.05;;;;;;;1.73;82.97;97897.56;5087266;28;20422;-66
2021/03/04 01:45:41;;;;;;;22.52;10.38;;;;;;;2.12;81.69;97933.66;5087872;28;20466;-67
2021/03/04 01:48:08;;;;;;;23.88;11.32;;;;;;;2.10;82.41;97927.69;5087967;28;20046;-67
2021/03/04 01:50:34;;;;;;;23.48;11.68;;;;;;;1.79;82.86;97910.06;5105859;28;20478;-67
2021/03/04 01:53:00;;;;;;;27.42;12.25;;;;;;;1.83;83.63;97922.03;5106195;28;20569;-67
2021/03/04 01:55:26;;;;;;;30.02;12.15;;;;;;;1.50;82.13;97880.91;5105785;28;20604;-67
2021/03/04 01:57:52;;;;;;;25.90;12.07;;;;;;;1.65;82.54;97888.13;5106319;28;20306;-67
2021/03/04 02:00:19;;;;;;;26.25;11.70;;;;;;;1.73;84.20;97922.97;5106271;28;20023;-67
2021/03/04 02:02:45;;;;;;;31.70;12.13;;;;;;;1.39;83.79;97857.59;5087584;28;20526;-68
2021/03/04 02:05:13;;;;;;;50.50;19.85;;;;;;;0.91;84.04;97798.69;5105435;28;20066;-68
2021/03/04 02:08:02;;;;;;;23.42;11.40;;;;;;;-1.04;83.71;97476.72;5105932;28;20478;-67
2021/03/04 02:10:39;;;;;;;24.38;10.90;;;;;;;1.82;84.11;97921.19;5087002;28;20126;-68
2021/03/04 02:13:37;;;;;;;24.65;10.27;;;;;;;-1.17;83.87;97442.06;5105921;28;20039;-67
2021/03/04 02:16:12;;;;;;;23.65;11.00;;;;;;;1.77;85.40;97923.19;5102175;28;20102;-67
2021/03/04 02:18:43;;;;;;;23.33;10.60;;;;;;;1.52;84.46;97867.81;5066151;28;20473;-68
2021/03/04 02:21:36;;;;;;;32.13;13.10;;;;;;;1.78;84.26;97913.91;5085055;28;20032;-67
2021/03/04 02:24:27;;;;;;;32.80;11.77;;;;;;;1.73;84.12;97916.69;5066883;28;20039;-68
2021/03/04 02:27:13;;;;;;;28.85;12.15;;;;;;;1.05;83.63;97802.34;5066975;28;20176;-68
2021/03/04 02:29:50;;;;;;;31.75;13.18;;;;;;;1.70;83.90;97918.09;5084934;28;20570;-68
2021/03/04 02:32:22;;;;;;;28.27;11.80;;;;;;;1.67;84.99;97915.13;5066491;28;20113;-68
2021/03/04 02:34:52;;;;;;;32.33;13.20;;;;;;;1.26;83.74;97847.41;5066712;28;20079;-68
2021/03/04 02:37:21;;;;;;;38.88;14.75;;;;;;;1.70;84.27;97915.38;5066656;28;20032;-67
2021/03/04 02:39:49;;;;;;;37.88;16.98;;;;;;;1.54;84.81;97908.47;5085101;28;20612;-67
2021/03/04 02:42:20;;;;;;;35.30;14.23;;;;;;;1.44;86.29;97906.66;5066561;28;20032;-68
2021/03/04 02:44:50;;;;;;;37.88;14.75;;;;;;;1.46;86.31;97912.66;5084886;28;20072;-67
2021/03/04 02:47:17;;;;;;;47.20;17.50;;;;;;;1.04;86.11;97827.97;5084241;28;20181;-67
2021/03/04 02:49:46;;;;;;;55.45;18.90;;;;;;;1.31;85.75;97866.41;5066500;28;20499;-68
2021/03/04 02:52:18;;;;;;;36.10;16.15;;;;;;;1.09;83.66;97863.38;5084587;28;20492;-67
2021/03/04 02:54:44;;;;;;;35.08;13.65;;;;;;;1.52;84.43;97903.28;5066537;28;20031;-68
2021/03/04 02:57:12;;;;;;;28.50;12.00;;;;;;;1.53;84.22;97898.66;5084586;28;20028;-67
2021/03/04 02:59:39;;;;;;;26.70;12.48;;;;;;;1.38;84.36;97901.53;5066453;28;20031;-67
2021/03/04 03:02:08;;;;;;;24.92;12.07;;;;;;;1.43;83.99;97901.50;5066396;28;20101;-67
2021/03/04 03:04:39;;;;;;;28.08;13.50;;;;;;;0.90;85.13;97850.81;5084643;28;20452;-67
2021/03/04 03:07:09;;;;;;;32.55;14.20;;;;;;;1.36;85.64;97901.84;5066138;28;20025;-67
2021/03/04 03:09:37;;;;;;;35.00;14.50;;;;;;;-0.05;85.08;97695.31;5066144;28;20024;-67
2021/03/04 03:12:03;;;;;;;37.58;16.00;;;;;;;1.23;85.83;97921.63;5084245;28;20028;-67
2021/03/04 03:14:29;;;;;;;41.47;16.90;;;;;;;1.26;86.17;97907.44;5083627;28;20043;-67
2021/03/04 03:16:58;;;;;;;38.65;17.83;;;;;;;1.12;87.26;97901.00;5089832;28;20430;-67
2021/03/04 03:19:24;;;;;;;38.97;17.60;;;;;;;0.75;88.12;97851.75;5104804;28;20039;-67
2021/03/04 03:21:50;;;;;;;29.58;14.75;;;;;;;1.14;88.24;97915.19;5104811;28;20030;-68
2021/03/04 03:24:16;;;;;;;32.03;13.25;;;;;;;1.11;86.75;97868.56;5104446;28;20032;-67
2021/03/04 03:26:42;;;;;;;33.63;15.10;;;;;;;1.25;87.28;97903.06;5104082;28;20028;-67
2021/03/04 03:29:08;;;;;;;40.30;16.45;;;;;;;0.75;88.01;97835.41;5104220;28;20088;-66
2021/03/04 03:31:35;;;;;;;26.67;11.38;;;;;;;1.33;86.79;97896.13;5085203;28;20039;-67
2021/03/04 03:34:03;;;;;;;25.50;11.48;;;;;;;1.33;86.51;97883.31;5085856;28;20034;-67
2021/03/04 03:36:29;;;;;;;24.08;10.98;;;;;;;0.92;86.49;97824.84;5104290;28;20039;-67
2021/03/04 03:38:57;;;;;;;24.63;10.73;;;;;;;1.30;87.23;97892.09;5104179;28;20486;-67
2021/03/04 03:41:24;;;;;;;29.95;14.80;;;;;;;1.29;85.90;97890.47;5086261;28;20089;-67
2021/03/04 03:43:54;;;;;;;36.25;15.88;;;;;;;1.31;85.75;97888.25;5085998;28;20063;-68
2021/03/04 03:46:20;;;;;;;31.63;15.73;;;;;;;1.27;84.72;97898.13;5085804;28;20032;-68
2021/03/04 03:48:47;;;;;;;39.92;16.65;;;;;;;0.56;85.57;97766.38;5103997;28;20502;-68
2021/03/04 03:51:17;;;;;;;39.58;18.30;;;;;;;0.00;85.56;97713.53;5085886;28;20059;-66
2021/03/04 03:53:44;;;;;;;40.33;16.98;;;;;;;1.21;85.81;97910.22;5104050;28;20490;-66
2021/03/04 03:56:11;;;;;;;42.42;17.45;;;;;;;0.84;86.32;97904.56;5104038;28;20046;-65
2021/03/04 03:58:38;;;;;;;36.63;15.13;;;;;;;1.14;86.16;97885.16;5104252;28;20032;-66
2021/03/04 04:01:07;;;;;;;49.65;21.77;;;;;;;1.14;86.33;97887.06;5104260;28;20036;-65
2021/03/04 04:03:33;;;;;;;40.75;19.63;;;;;;;1.13;86.78;97880.81;5103996;28;20081;-66
2021/03/04 04:06:01;;;;;;;36.67;16.23;;;;;;;1.06;86.32;97880.34;5085309;28;20052;-66
2021/03/04 04:08:29;;;;;;;28.05;13.85;;;;;;;-0.22;86.40;97681.31;5085768;28;20042;-67
2021/03/04 04:10:55;;;;;;;27.15;13.15;;;;;;;-0.89;86.34;97558.13;5103705;28;20035;-67
2021/03/04 04:13:22;;;;;;;29.65;14.40;;;;;;;0.85;85.98;97829.03;5104315;28;20039;-66
2021/03/04 04:15:47;;;;;;;37.85;16.90;;;;;;;1.18;85.96;97867.13;5103400;28;20491;-66
2021/03/04 04:18:13;;;;;;;49.85;21.67;;;;;;;0.99;86.14;97841.69;5103285;28;20040;-66
2021/03/04 04:20:39;;;;;;;59.80;22.50;;;;;;;1.05;86.71;97867.81;5085496;28;20058;-67
2021/03/04 04:23:06;;;;;;;72.25;32.45;;;;;;;0.53;86.26;97787.94;5103752;28;20442;-66
2021/03/04 04:25:41;;;;;;;58.75;28.13;;;;;;;1.12;86.16;97873.72;5085039;28;20031;-66
2021/03/04 04:28:13;;;;;;;41.78;18.02;;;;;;;1.02;86.60;97871.13;5103573;28;20554;-66
2021/03/04 04:30:39;;;;;;;36.17;15.85;;;;;;;0.98;86.94;97866.53;5103798;28;20173;-66
2021/03/04 04:33:04;;;;;;;35.47;18.52;;;;;;;-0.24;87.17;97663.66;5085533;28;20541;-66
2021/03/04 04:35:30;;;;;;;34.70;17.38;;;;;;;-0.04;87.92;97685.25;5103632;28;20498;-67
2021/03/04 04:37:56;;;;;;;39.80;19.25;;;;;;;-0.63;88.37;97586.72;5103631;28;20084;-66
2021/03/04 04:40:22;;;;;;;52.65;22.08;;;;;;;0.44;88.06;97774.13;5085015;28;20027;-67
2021/03/04 04:42:47;;;;;;;46.72;20.27;;;;;;;0.93;88.60;97858.41;5106846;28;20581;-67
2021/03/04 04:45:13;;;;;;;34.13;16.13;;;;;;;0.70;87.36;97868.16;5107247;28;20036;-67
2021/03/04 04:47:39;;;;;;;36.08;14.35;;;;;;;0.92;86.39;97856.75;5107923;28;20039;-67
2021/03/04 04:50:05;;;;;;;33.88;14.23;;;;;;;0.87;87.55;97851.38;5107352;28;20027;-68
2021/03/04 04:52:31;;;;;;;41.22;16.95;;;;;;;0.88;87.37;97847.53;5088968;28;20070;-68
2021/03/04 04:54:57;;;;;;;47.05;20.45;;;;;;;0.89;86.34;97844.53;5106846;28;20067;-68
2021/03/04 04:57:23;;;;;;;41.75;19.08;;;;;;;-0.27;85.86;97675.13;5106858;28;20031;-69
2021/03/04 04:59:49;;;;;;;114.20;44.75;;;;;;;-2.53;85.61;97391.41;5105688;28;20038;-68
2021/03/04 05:02:17;;;;;;;152.05;64.53;;;;;;;0.87;85.51;97854.09;5106815;28;20043;-68
2021/03/04 05:04:42;;;;;;;170.82;76.57;;;;;;;0.11;84.64;97725.97;5107400;28;20370;-68
2021/03/04 05:07:10;;;;;;;129.02;59.95;;;;;;;0.86;85.11;97841.56;5089212;28;20031;-67
2021/03/04 05:09:38;;;;;;;81.07;39.88;;;;;;;0.81;84.15;97839.69;5088930;28;20494;-68
2021/03/04 05:12:05;;;;;;;50.03;23.23;;;;;;;0.02;83.67;97722.22;5106758;28;20058;-68
2021/03/04 05:14:30;;;;;;;47.95;20.52;;;;;;;0.38;83.71;97766.28;5107164;28;20047;-68
2021/03/04 05:16:58;;;;;;;42.03;18.98;;;;;;;0.74;84.38;97817.44;5088670;28;20116;-67
2021/03/04 05:19:24;;;;;;;38.65;18.65;;;;;;;0.87;84.84;97833.09;4754221;28;10000217;-67
2021/03/04 05:21:50;;;;;;;40.33;19.30;;;;;;;1.01;85.07;97839.47;5106872;28;20071;-67
2021/03/04 05:24:15;;;;;;;49.53;21.95;;;;;;;0.73;85.84;97782.25;5088264;28;20889;-67
2021/03/04 05:26:41;;;;;;;69.10;35.60;;;;;;;0.63;85.28;97815.91;5107005;28;20478;-68
2021/03/04 05:29:07;;;;;;;62.58;30.13;;;;;;;0.87;84.72;97773.09;5106618;28;20489;-66
2021/03/04 05:31:32;;;;;;;59.85;29.63;;;;;;;1.19;84.49;97844.19;5106347;28;20036;-67
2021/03/04 05:33:58;;;;;;;67.68;30.17;;;;;;;1.53;84.06;97825.75;5088152;28;20141;-69
2021/03/04 05:36:24;;;;;;;68.20;30.60;;;;;;;1.70;84.71;97821.69;5087715;28;20574;-66
2021/03/04 05:38:50;;;;;;;77.65;33.50;;;;;;;1.46;84.97;97798.00;5088135;28;20027;-67
2021/03/04 05:41:21;;;;;;;80.70;35.10;;;;;;;1.86;83.95;97823.09;5087746;28;20040;-66
2021/03/04 05:43:47;;;;;;;84.47;38.58;;;;;;;0.81;83.36;97632.47;5087756;28;20024;-67
2021/03/04 05:46:15;;;;;;;88.50;37.63;;;;;;;1.28;82.49;97681.44;5106371;28;20614;-66
2021/03/04 05:48:44;;;;;;;87.38;37.50;;;;;;;2.37;80.67;97822.00;5106167;28;20049;-67
2021/03/04 05:51:13;;;;;;;73.57;34.15;;;;;;;2.38;80.75;97817.38;5087773;28;20031;-66
2021/03/04 05:53:45;;;;;;;70.13;30.15;;;;;;;1.92;80.23;97718.94;5106097;28;20465;-67
2021/03/04 05:56:14;;;;;;;40.13;20.23;;;;;;;2.75;79.42;97820.00;5105748;28;20454;-68
2021/03/04 05:58:41;;;;;;;70.03;34.13;;;;;;;2.54;79.93;97785.94;5105796;28;20118;-68
2021/03/04 06:01:06;;;;;;;67.60;34.63;;;;;;;2.89;79.94;97815.38;5082848;28;20044;-65
2021/03/04 06:03:32;;;;;;;68.93;35.75;;;;;;;2.16;78.97;97681.38;5086954;28;20068;-68
2021/03/04 06:05:58;;;;;;;84.35;38.10;;;;;;;2.97;78.31;97792.78;5106166;28;20541;-68
2021/03/04 06:08:24;;;;;;;102.68;47.47;;;;;;;3.10;77.81;97764.59;5106214;28;20111;-68
2021/03/04 06:10:50;;;;;;;96.80;45.97;;;;;;;3.56;77.51;97800.84;5105270;28;20480;-68
2021/03/04 06:13:16;;;;;;;80.75;41.70;;;;;;;3.72;76.36;97807.63;5105772;28;20038;-68
2021/03/04 06:15:42;;;;;;;83.68;39.38;;;;;;;3.91;75.61;97805.53;5087290;28;20035;-67
2021/03/04 06:18:07;;;;;;;79.68;38.25;;;;;;;3.27;74.40;97682.69;5105778;28;20047;-66
2021/03/04 06:20:40;;;;;;;86.57;37.72;;;;;;;3.27;75.66;97712.78;5087235;28;20036;-66
2021/03/04 06:23:07;;;;;;;82.68;39.50;;;;;;;3.60;77.30;97799.13;5106261;28;20489;-67
2021/03/04 06:25:32;;;;;;;81.85;36.88;;;;;;;3.16;77.39;97727.81;5105717;28;20042;-67
2021/03/04 06:27:59;;;;;;;78.40;31.88;;;;;;;3.75;76.22;97779.59;5105720;28;20032;-67
2021/03/04 06:30:32;;;;;;;77.03;31.88;;;;;;;3.50;77.36;97750.06;5104720;28;20038;-68
2021/03/04 06:33:04;;;;;;;59.80;30.80;;;;;;;4.06;76.04;97796.97;5105549;28;20058;-67
2021/03/04 06:35:34;;;;;;;73.20;33.85;;;;;;;4.08;76.10;97794.72;5105090;28;20032;-67
2021/03/04 06:38:13;;;;;;;72.22;36.60;;;;;;;4.33;76.36;97779.59;5105364;28;20035;-68
2021/03/04 06:40:46;;;;;;;57.47;29.33;;;;;;;4.69;75.68;97769.34;5105342;28;20027;-66
2021/03/04 06:43:19;;;;;;;52.05;28.35;;;;;;;5.08;74.24;97783.09;5105594;28;20543;-67
2021/03/04 06:45:46;;;;;;;40.65;22.73;;;;;;;5.28;73.43;97781.72;5104718;28;20608;-66
2021/03/04 06:48:16;;;;;;;64.60;29.17;;;;;;;5.09;72.32;97709.78;5086564;28;20031;-66
2021/03/04 06:51:04;;;;;;;55.75;28.92;;;;;;;5.94;70.96;97770.41;5104905;28;20035;-67
2021/03/04 06:53:33;;;;;;;45.88;27.85;;;;;;;6.09;70.05;97758.91;5105223;28;20132;-67
2021/03/04 06:56:05;;;;;;;41.90;21.25;;;;;;;5.51;68.77;97673.31;5102868;28;20028;-63
2021/03/04 06:58:41;;;;;;;42.22;22.15;;;;;;;5.75;67.98;97668.94;5080638;28;20040;-69
2021/03/04 07:01:08;;;;;;;36.17;20.85;;;;;;;6.81;66.76;97751.50;5087989;28;20520;-68
2021/03/04 07:03:41;;;;;;;44.63;23.77;;;;;;;6.51;64.66;97664.50;5096549;28;20099;-62
2021/03/04 07:06:09;;;;;;;46.83;21.13;;;;;;;6.97;65.11;97747.06;5084787;28;20522;-67
2021/03/04 07:08:38;;;;;;;39.90;22.50;;;;;;;7.32;64.96;97745.78;5094181;28;20533;-66
2021/03/04 07:11:05;;;;;;;47.30;24.33;;;;;;;7.43;63.34;97708.44;5080168;28;20028;-69
2021/03/04 07:13:33;;;;;;;41.17;23.42;;;;;;;7.14;62.94;97650.59;5090940;28;20024;-67
2021/03/04 07:16:04;;;;;;;38.42;22.15;;;;;;;7.65;61.82;97694.34;5096790;28;20822;-67
2021/03/04 07:18:37;;;;;;;38.38;20.73;;;;;;;8.03;61.08;97737.53;5100962;28;20077;-67
2021/03/04 07:21:03;;;;;;;31.98;16.20;;;;;;;5.39;62.27;97351.78;5082646;28;20047;-66
2021/03/04 07:23:29;;;;;;;23.38;13.85;;;;;;;7.05;63.18;97618.72;5095384;28;20063;-67
2021/03/04 07:25:55;;;;;;;22.02;12.40;;;;;;;7.62;62.34;97650.91;5090107;28;20032;-65
2021/03/04 07:28:23;;;;;;;27.27;14.05;;;;;;;8.50;60.07;97725.13;5090870;28;20040;-66
2021/03/04 07:30:49;;;;;;;21.73;13.50;;;;;;;8.51;59.00;97680.59;5102415;28;20078;-68
2021/03/04 07:33:16;;;;;;;27.50;14.18;;;;;;;8.68;58.28;97715.50;5096115;28;20036;-69
2021/03/04 07:35:46;;;;;;;21.90;12.57;;;;;;;9.10;57.38;97705.91;5091015;28;20058;-71
2021/03/04 07:38:23;;;;;;;22.48;12.57;;;;;;;8.39;57.90;97580.41;5084096;28;20039;-70
2021/03/04 07:41:03;;;;;;;23.33;12.52;;;;;;;8.62;57.25;97650.59;5085550;28;20088;-69
2021/03/04 07:43:30;;;;;;;23.52;12.80;;;;;;;8.44;56.77;97633.41;5093925;28;20502;-67
2021/03/04 07:45:55;;;;;;;20.65;11.32;;;;;;;8.41;58.08;97667.22;5091039;28;20490;-67
2021/03/04 07:48:21;;;;;;;26.48;14.40;;;;;;;9.13;58.65;97699.69;5074232;28;20036;-69
2021/03/04 07:50:59;;;;;;;24.02;12.40;;;;;;;7.91;58.42;97445.09;5100075;28;20134;-68
2021/03/04 07:53:26;;;;;;;29.45;13.20;;;;;;;9.62;57.18;97698.50;5095624;28;20031;-67
2021/03/04 07:55:52;;;;;;;25.63;14.43;;;;;;;9.81;55.52;97676.56;5088761;28;20030;-67
2021/03/04 07:58:18;;;;;;;23.45;12.60;;;;;;;8.35;56.35;97458.00;5092972;28;20038;-64
2021/03/04 08:00:44;;;;;;;26.83;13.10;;;;;;;9.69;55.58;97657.22;5091369;28;20031;-67
2021/03/04 08:03:10;;;;;;;25.00;12.98;;;;;;;8.21;56.96;97573.41;5088711;28;20036;-69
2021/03/04 08:05:38;;;;;;;21.55;11.27;;;;;;;9.04;58.06;97657.56;5090965;28;20098;-66
2021/03/04 08:08:17;;;;;;;25.75;13.68;;;;;;;9.40;57.90;97649.22;5085919;28;20497;-67
2021/03/04 08:10:54;;;;;;;24.40;13.27;;;;;;;9.31;56.62;97623.66;5085252;28;20039;-67
2021/03/04 08:13:30;;;;;;;27.45;13.10;;;;;;;8.73;55.60;97550.38;5097081;28;20035;-67
2021/03/04 08:15:56;;;;;;;21.67;11.73;;;;;;;9.03;56.16;97595.94;5082634;28;20085;-69
2021/03/04 08:18:23;;;;;;;19.80;11.77;;;;;;;6.96;55.23;97243.44;5071185;28;20276;-69
2021/03/04 08:20:51;;;;;;;22.88;12.13;;;;;;;9.73;55.45;97643.50;5088613;28;20769;-64
2021/03/04 08:23:18;;;;;;;22.35;12.27;;;;;;;10.11;53.32;97641.91;5088867;28;20024;-65
2021/03/04 08:25:45;;;;;;;22.60;11.70;;;;;;;9.95;53.23;97624.41;5091126;28;20563;-69
2021/03/04 08:28:27;;;;;;;21.35;12.15;;;;;;;10.81;52.09;97658.81;5100207;28;20425;-70
2021/03/04 08:30:53;;;;;;;23.73;12.45;;;;;;;11.06;51.39;97632.53;5087500;28;20592;-66
2021/03/04 08:33:20;;;;;;;21.35;11.85;;;;;;;10.96;50.63;97589.53;5089407;28;20042;-65
2021/03/04 08:35:48;;;;;;;21.08;12.20;;;;;;;10.64;50.59;97547.19;5077287;28;20452;-64
2021/03/04 08:38:16;;;;;;;22.60;11.85;;;;;;;11.30;50.23;97621.25;5087184;28;20040;-65
2021/03/04 08:40:45;;;;;;;31.23;17.35;;;;;;;11.69;49.86;97622.94;5083588;28;20032;-65
2021/03/04 08:43:19;;;;;;;24.95;12.23;;;;;;;11.99;48.56;97618.44;5087339;28;20154;-64
2021/03/04 08:45:49;;;;;;;19.65;12.13;;;;;;;12.10;47.81;97605.56;5096757;28;20422;-66
2021/03/04 08:48:15;;;;;;;23.45;13.43;;;;;;;12.21;48.12;97601.03;5089323;28;20059;-64
2021/03/04 08:50:44;;;;;;;26.45;13.10;;;;;;;11.52;48.99;97556.75;5086732;28;20483;-68
2021/03/04 08:53:17;;;;;;;21.63;12.35;;;;;;;12.07;48.61;97595.19;5106054;28;20040;-66
2021/03/04 08:55:50;;;;;;;19.55;11.00;;;;;;;12.18;47.81;97596.22;5101412;28;20399;-67
2021/03/04 08:58:18;;;;;;;23.40;12.38;;;;;;;12.45;47.20;97589.59;5094198;28;20101;-69
2021/03/04 09:00:51;;;;;;;23.50;12.35;;;;;;;12.61;47.01;97578.34;5096152;28;20119;-65
2021/03/04 09:03:19;;;;;;;16.42;11.18;;;;;;;12.68;46.72;97578.47;5099671;28;20031;-68
2021/03/04 09:05:45;;;;;;;20.88;11.07;;;;;;;12.93;46.37;97572.16;5103435;28;20066;-68
2021/03/04 09:08:13;;;;;;;20.25;13.15;;;;;;;12.43;46.02;97475.22;5089446;28;20043;-65
2021/03/04 09:14:10;;;;;;;20.80;11.38;;;;;;;12.36;45.10;97405.66;5121036;27;20358;-64
2021/03/04 09:16:44;;;;;;;21.70;12.30;;;;;;;13.31;45.42;97549.72;5098458;28;20432;-70
2021/03/04 09:19:10;;;;;;;18.00;11.35;;;;;;;13.09;45.78;97547.81;5086148;28;20089;-67
2021/03/04 09:21:37;;;;;;;17.35;10.48;;;;;;;13.34;44.86;97546.19;5111130;28;20075;-68
2021/03/04 09:24:03;;;;;;;17.73;10.25;;;;;;;13.26;44.77;97541.69;5113834;28;20038;-70
2021/03/04 09:26:33;;;;;;;16.52;10.38;;;;;;;13.06;45.20;97529.09;5104967;27;20020;-70
2021/03/04 09:29:02;;;;;;;28.02;11.45;;;;;;;12.84;45.00;97507.66;5103109;28;20046;-68
2021/03/04 09:31:28;;;;;;;19.23;11.60;;;;;;;13.16;46.04;97519.28;5103537;28;20489;-67
2021/03/04 09:33:58;;;;;;;18.73;11.85;;;;;;;12.83;44.91;97469.13;5121953;27;20039;-70
2021/03/04 09:36:24;;;;;;;14.75;9.82;;;;;;;13.58;44.50;97515.13;5121316;27;20876;-69
2021/03/04 09:38:52;;;;;;;17.73;10.75;;;;;;;12.49;44.58;97379.25;5118390;27;20533;-67
2021/03/04 09:41:20;;;;;;;14.60;9.98;;;;;;;12.22;44.70;97322.09;5107629;28;20050;-68
2021/03/04 09:43:56;;;;;;;16.42;11.23;;;;;;;12.63;43.29;97307.22;5113648;27;20031;-68
2021/03/04 09:46:34;;;;;;;21.20;10.02;;;;;;;13.13;42.94;97303.91;5116713;27;20061;-66
2021/03/04 09:49:21;;;;;;;14.90;9.73;;;;;;;14.63;41.61;97486.81;5099244;28;20040;-69
2021/03/04 09:51:47;;;;;;;17.17;10.07;;;;;;;14.06;41.14;97395.50;5107767;28;20110;-71
2021/03/04 09:54:28;;;;;;;15.35;10.57;;;;;;;14.63;41.47;97486.81;5116355;28;20058;-68
2021/03/04 09:57:05;;;;;;;20.85;14.35;;;;;;;14.44;41.56;97461.94;5116751;28;20035;-67
2021/03/04 09:59:31;;;;;;;39.53;29.42;;;;;;;14.43;41.05;97410.97;5104108;28;20027;-68
2021/03/04 10:01:58;;;;;;;15.32;10.15;;;;;;;14.21;40.77;97319.22;5106243;28;20066;-67
2021/03/04 10:04:26;;;;;;;27.80;18.15;;;;;;;14.38;40.22;97299.06;5118367;27;20525;-69
2021/03/04 10:06:55;;;;;;;27.23;16.95;;;;;;;14.44;40.58;97300.28;5112162;28;20566;-68
2021/03/04 10:09:26;;;;;;;13.95;10.15;;;;;;;13.63;40.59;97305.19;5121034;27;20039;-69
2021/03/04 10:11:52;;;;;;;16.02;9.95;;;;;;;14.95;40.63;97457.94;5106291;27;20083;-68
2021/03/04 10:14:17;;;;;;;16.85;9.70;;;;;;;12.21;41.02;97078.91;5115084;27;20032;-70
2021/03/04 10:16:54;;;;;;;14.38;9.10;;;;;;;14.71;40.77;97441.06;5105194;28;20126;-70
2021/03/04 10:19:20;;;;;;;16.25;9.65;;;;;;;14.76;40.77;97440.69;5109891;28;20046;-68
2021/03/04 10:21:45;;;;;;;15.60;10.45;;;;;;;14.60;40.02;97334.22;5117620;27;20047;-71
2021/03/04 10:24:13;;;;;;;15.40;9.50;;;;;;;15.40;39.55;97425.94;5101392;28;20028;-69
2021/03/04 10:26:40;;;;;;;21.00;10.95;;;;;;;14.65;39.10;97255.78;5086159;28;20623;-69
2021/03/04 10:29:06;;;;;;;14.65;10.15;;;;;;;15.48;39.10;97329.84;5086438;28;20074;-69
2021/03/04 10:31:32;;;;;;;16.83;11.05;;;;;;;15.79;38.30;97343.06;5084095;28;20074;-67
2021/03/04 10:33:58;;;;;;;16.15;10.65;;;;;;;15.62;37.96;97310.31;5086521;28;20500;-69
2021/03/04 10:36:24;;;;;;;18.73;12.57;;;;;;;16.46;37.70;97360.69;5085461;28;20024;-69
2021/03/04 10:38:49;;;;;;;13.75;9.90;;;;;;;16.28;36.91;97309.53;5086461;28;20038;-68
2021/03/04 10:41:15;;;;;;;14.77;11.00;;;;;;;15.93;36.96;97231.31;5084814;28;20044;-70
2021/03/04 10:43:41;;;;;;;15.32;11.20;;;;;;;16.60;36.94;97343.88;5083904;28;20051;-67
2021/03/04 10:46:06;;;;;;;18.95;12.20;;;;;;;16.00;37.97;97287.19;5114030;27;20115;-71
2021/03/04 10:48:32;;;;;;;15.23;10.57;;;;;;;16.63;37.76;97387.03;5095649;28;20032;-69
2021/03/04 10:50:58;;;;;;;12.00;9.75;;;;;;;15.92;37.63;97235.31;5090656;28;20043;-71
2021/03/04 10:53:29;;;;;;;19.65;13.70;;;;;;;17.03;37.65;97377.34;5103923;28;20043;-64
2021/03/04 10:56:02;;;;;;;14.85;9.95;;;;;;;17.25;37.12;97368.50;5095581;28;20024;-69
2021/03/04 10:58:28;;;;;;;;;;;;;;;17.36;36.97;97360.03;5098589;28;20561;-65
2021/03/04 11:00:54;;;;;;;18.52;12.70;;;;;;;16.35;37.53;97259.22;5088073;28;20089;-68
2021/03/04 11:03:19;;;;;;;12.50;9.18;;;;;;;15.70;38.65;97314.72;5085640;28;20035;-70
2021/03/04 11:05:45;;;;;;;13.00;9.77;;;;;;;16.64;38.13;97350.25;5090433;28;20410;-72
2021/03/04 11:08:12;;;;;;;16.88;10.82;;;;;;;15.62;37.91;97137.19;5094732;28;20032;-70
2021/03/04 11:10:37;;;;;;;14.80;11.27;;;;;;;16.94;37.29;97307.03;5094336;28;20047;-69
2021/03/04 11:13:05;;;;;;;15.48;10.15;;;;;;;16.13;36.60;97148.66;5093742;28;20068;-72
2021/03/04 11:15:31;;;;;;;14.48;10.40;;;;;;;16.93;36.96;97325.03;5101244;28;20031;-70
2021/03/04 11:17:57;;;;;;;15.77;10.50;;;;;;;16.60;37.04;97204.03;5095945;28;20032;-66
2021/03/04 11:20:24;;;;;;;11.45;8.93;;;;;;;16.19;36.80;97143.44;5088409;28;20255;-70
2021/03/04 11:22:49;;;;;;;15.35;10.88;;;;;;;17.24;36.76;97302.50;5087962;28;20521;-69
2021/03/04 11:25:15;;;;;;;15.95;10.05;;;;;;;17.55;36.60;97297.94;5090503;28;20051;-68
2021/03/04 11:27:41;;;;;;;15.13;9.98;;;;;;;17.82;35.89;97302.56;5090582;28;20145;-69
2021/03/04 11:30:08;;;;;;;12.57;9.48;;;;;;;14.85;36.36;96830.34;5091638;28;20449;-70
2021/03/04 11:32:34;;;;;;;16.65;10.55;;;;;;;18.01;35.86;97281.59;5092460;28;20035;-71